createdAt,value
2023-03-26T00:01:26.064Z,9.17
2023-03-26T00:03:58.067Z,9.16
2023-03-26T00:06:29.399Z,9.16
2023-03-26T00:08:59.307Z,9.20
2023-03-26T00:11:29.616Z,9.20
2023-03-26T00:13:58.889Z,9.19
2023-03-26T00:16:31.322Z,9.23
2023-03-26T00:19:01.517Z,9.34
2023-03-26T00:21:31.648Z,9.38
2023-03-26T00:24:04.593Z,9.25
2023-03-26T00:26:33.841Z,9.46
2023-03-26T00:29:04.194Z,9.46
2023-03-26T00:31:34.888Z,9.51
2023-03-26T00:34:05.775Z,9.61
2023-03-26T00:36:36.373Z,9.60
2023-03-26T00:39:06.385Z,9.59
2023-03-26T00:41:37.336Z,9.58
2023-03-26T00:44:06.288Z,9.61
2023-03-26T00:46:36.467Z,9.37
2023-03-26T00:49:05.147Z,9.68
2023-03-26T00:51:35.176Z,9.71
2023-03-26T00:54:03.642Z,9.79
2023-03-26T00:56:33.054Z,9.81
2023-03-26T00:59:01.506Z,9.88
2023-03-26T01:01:31.689Z,9.68
2023-03-26T01:04:28.532Z,9.98
2023-03-26T01:07:00.137Z,9.98
2023-03-26T01:09:34.896Z,9.76
2023-03-26T01:12:06.783Z,10.00
2023-03-26T01:14:35.404Z,10.01
2023-03-26T01:17:07.066Z,9.99
2023-03-26T01:19:46.960Z,10.05
2023-03-26T01:22:17.825Z,9.99
2023-03-26T01:24:53.407Z,9.96
2023-03-26T01:27:29.804Z,10.00
2023-03-26T01:30:06.001Z,10.00
2023-03-26T01:32:46.390Z,9.93
2023-03-26T01:35:26.147Z,9.51
2023-03-26T01:38:10.697Z,9.94
2023-03-26T01:40:47.255Z,9.79
2023-03-26T01:43:26.062Z,10.05
2023-03-26T01:45:56.501Z,10.09
2023-03-26T01:48:31.979Z,10.04
2023-03-26T01:51:00.571Z,10.00
2023-03-26T01:53:29.153Z,10.01
2023-03-26T01:56:07.370Z,10.05
2023-03-26T01:58:42.761Z,10.05
2023-03-26T02:01:24.731Z,10.06
2023-03-26T02:04:00.580Z,10.07
2023-03-26T02:06:37.757Z,10.11
2023-03-26T02:09:09.333Z,10.08
2023-03-26T02:11:41.934Z,10.07
2023-03-26T02:14:11.616Z,10.06
2023-03-26T02:16:40.070Z,10.05
2023-03-26T02:19:15.618Z,10.09
2023-03-26T02:21:46.042Z,10.13
2023-03-26T02:24:14.689Z,10.16
2023-03-26T02:26:44.641Z,10.11
2023-03-26T02:29:14.120Z,10.18
2023-03-26T02:31:45.035Z,10.09
2023-03-26T02:34:13.922Z,10.04
2023-03-26T02:36:48.597Z,10.00
2023-03-26T02:39:17.113Z,9.96
2023-03-26T02:41:54.672Z,9.94
2023-03-26T02:44:23.459Z,9.93
2023-03-26T02:47:14.830Z,9.92
2023-03-26T02:49:55.348Z,9.88
2023-03-26T02:52:50.328Z,9.89
2023-03-26T02:55:19.644Z,9.90
2023-03-26T02:57:50.867Z,9.90
2023-03-26T03:00:22.941Z,9.83
2023-03-26T03:02:53.009Z,9.83
2023-03-26T03:05:34.586Z,9.83
2023-03-26T03:08:31.416Z,9.79
2023-03-26T03:11:12.543Z,9.79
2023-03-26T03:13:52.087Z,9.78
2023-03-26T03:16:24.277Z,9.79
2023-03-26T03:18:57.875Z,9.84
2023-03-26T03:21:47.024Z,9.90
2023-03-26T03:24:18.561Z,9.96
2023-03-26T03:26:50.422Z,9.95
2023-03-26T03:29:37.887Z,9.90
2023-03-26T03:32:27.904Z,9.94
2023-03-26T03:35:01.097Z,9.98
2023-03-26T03:37:29.932Z,9.98
2023-03-26T03:39:59.985Z,9.34
2023-03-26T03:42:31.614Z,9.92
2023-03-26T03:45:04.866Z,9.88
2023-03-26T03:47:54.275Z,9.82
2023-03-26T03:50:29.716Z,9.89
2023-03-26T03:53:18.738Z,9.88
2023-03-26T03:55:54.260Z,9.90
2023-03-26T03:58:28.459Z,9.96
2023-03-26T04:01:04.768Z,10.03
2023-03-26T04:03:59.531Z,10.00
2023-03-26T04:06:40.623Z,9.63
2023-03-26T04:09:10.975Z,10.04
2023-03-26T04:11:40.234Z,10.12
2023-03-26T04:14:20.929Z,10.13
2023-03-26T04:17:13.575Z,10.09
2023-03-26T04:19:44.303Z,9.99
2023-03-26T04:22:14.927Z,10.07
2023-03-26T04:24:55.661Z,10.07
2023-03-26T04:27:35.571Z,10.09
2023-03-26T04:30:24.583Z,10.13
2023-03-26T04:33:04.129Z,10.16
2023-03-26T04:35:35.873Z,9.91
2023-03-26T04:38:07.083Z,10.14
2023-03-26T04:40:42.498Z,10.13
2023-03-26T04:43:25.352Z,10.18
2023-03-26T04:46:14.412Z,10.18
2023-03-26T04:48:53.620Z,10.23
2023-03-26T04:51:35.204Z,10.27
2023-03-26T04:54:04.350Z,10.27
2023-03-26T04:56:46.078Z,10.30
2023-03-26T04:59:26.161Z,10.33
2023-03-26T05:01:57.977Z,10.36
2023-03-26T05:04:30.566Z,10.38
2023-03-26T05:07:00.226Z,10.40
2023-03-26T05:09:41.227Z,10.41
2023-03-26T05:12:16.606Z,10.42
2023-03-26T05:15:20.502Z,10.35
2023-03-26T05:17:51.942Z,10.38
2023-03-26T05:20:31.310Z,10.41
2023-03-26T05:23:00.005Z,10.40
2023-03-26T05:25:31.635Z,10.41
2023-03-26T05:28:02.041Z,10.37
2023-03-26T05:30:40.655Z,10.33
2023-03-26T05:33:09.265Z,10.23
2023-03-26T05:35:46.824Z,10.22
2023-03-26T05:38:15.593Z,10.17
2023-03-26T05:40:44.045Z,10.15
2023-03-26T05:43:17.400Z,10.08
2023-03-26T05:45:56.354Z,10.04
2023-03-26T05:48:31.507Z,10.07
2023-03-26T05:51:01.702Z,10.07
2023-03-26T05:53:32.813Z,10.00
2023-03-26T05:56:19.774Z,9.98
2023-03-26T05:59:07.114Z,10.01
2023-03-26T06:01:54.661Z,10.04
2023-03-26T06:05:01.387Z,10.03
2023-03-26T06:07:39.550Z,10.02
2023-03-26T06:10:18.470Z,10.05
2023-03-26T06:12:47.879Z,10.10
2023-03-26T06:15:16.803Z,10.18
2023-03-26T06:17:49.270Z,10.23
2023-03-26T06:20:42.862Z,10.18
2023-03-26T06:23:23.651Z,10.32
2023-03-26T06:26:18.380Z,10.34
2023-03-26T06:28:57.996Z,10.44
2023-03-26T06:31:44.701Z,10.52
2023-03-26T06:34:39.211Z,10.58
2023-03-26T06:37:07.676Z,10.64
2023-03-26T06:39:38.391Z,10.69
2023-03-26T06:42:22.157Z,10.62
2023-03-26T06:45:28.863Z,10.70
2023-03-26T06:48:16.096Z,10.75
2023-03-26T06:50:58.290Z,10.79
2023-03-26T06:53:52.368Z,10.80
2023-03-26T06:56:45.314Z,10.82
2023-03-26T06:59:37.492Z,10.96
2023-03-26T07:02:34.781Z,11.06
2023-03-26T07:05:26.471Z,11.11
2023-03-26T07:08:22.220Z,11.11
2023-03-26T07:11:11.552Z,11.13
2023-03-26T07:14:13.721Z,11.17
2023-03-26T07:16:49.092Z,11.19
2023-03-26T07:19:31.342Z,11.26
2023-03-26T07:22:00.526Z,11.33
2023-03-26T07:24:50.771Z,11.37
2023-03-26T07:27:45.534Z,11.43
2023-03-26T07:30:26.036Z,11.56
2023-03-26T07:33:22.945Z,11.65
2023-03-26T07:36:22.050Z,11.74
2023-03-26T07:39:28.213Z,11.79
2023-03-26T07:42:25.617Z,11.84
2023-03-26T07:45:24.905Z,11.86
2023-03-26T07:48:17.142Z,11.83
2023-03-26T07:51:04.513Z,11.78
2023-03-26T07:54:04.334Z,11.85
2023-03-26T07:56:54.948Z,11.89
2023-03-26T07:59:41.464Z,12.02
2023-03-26T08:03:11.562Z,12.21
2023-03-26T08:06:27.167Z,12.60
2023-03-26T08:09:31.061Z,12.87
2023-03-26T08:12:30.159Z,13.09
2023-03-26T08:15:05.815Z,13.15
2023-03-26T08:17:40.761Z,13.10
2023-03-26T08:20:26.290Z,13.15
2023-03-26T08:23:03.734Z,13.39
2023-03-26T08:25:38.046Z,13.70
2023-03-26T08:28:29.670Z,13.94
2023-03-26T08:30:58.762Z,14.21
2023-03-26T08:33:28.822Z,14.55
2023-03-26T08:35:59.335Z,14.89
2023-03-26T08:38:27.829Z,15.16
2023-03-26T08:41:43.226Z,15.41
2023-03-26T08:45:02.547Z,15.63
2023-03-26T08:48:09.501Z,15.68
2023-03-26T08:51:28.351Z,15.68
2023-03-26T08:54:29.001Z,15.74
2023-03-26T08:57:17.734Z,15.88
2023-03-26T09:00:13.593Z,16.09
2023-03-26T09:03:35.783Z,16.25
2023-03-26T09:06:41.862Z,16.25
2023-03-26T09:09:39.855Z,16.26
2023-03-26T09:12:42.098Z,16.29
2023-03-26T09:15:51.920Z,16.30
2023-03-26T09:18:53.793Z,16.28
2023-03-26T09:21:46.624Z,16.29
2023-03-26T09:25:05.175Z,16.31
2023-03-26T09:27:54.635Z,16.34
2023-03-26T09:30:45.794Z,16.32
2023-03-26T09:33:52.369Z,16.38
2023-03-26T09:36:37.357Z,16.43
2023-03-26T09:39:15.445Z,16.42
2023-03-26T09:41:53.401Z,16.40
2023-03-26T09:45:00.444Z,16.37
2023-03-26T09:47:48.918Z,16.20
2023-03-26T09:50:35.131Z,16.06
2023-03-26T09:53:31.758Z,16.11
2023-03-26T09:56:12.768Z,16.12
2023-03-26T09:59:04.902Z,16.11
2023-03-26T10:01:44.121Z,16.06
2023-03-26T10:04:42.450Z,16.03
2023-03-26T10:07:30.345Z,16.02
2023-03-26T10:10:05.873Z,16.10
2023-03-26T10:12:38.958Z,16.14
2023-03-26T10:15:31.484Z,16.21
2023-03-26T10:18:27.036Z,16.24
2023-03-26T10:21:07.177Z,16.26
2023-03-26T10:24:08.780Z,16.21
2023-03-26T10:27:09.253Z,16.07
2023-03-26T10:29:59.398Z,16.09
2023-03-26T10:32:34.962Z,16.03
2023-03-26T10:35:24.734Z,16.00
2023-03-26T10:38:07.437Z,15.97
2023-03-26T10:40:43.835Z,15.93
2023-03-26T10:43:36.284Z,15.87
2023-03-26T10:46:26.328Z,15.81
2023-03-26T10:49:10.019Z,15.78
2023-03-26T10:51:51.486Z,15.63
2023-03-26T10:54:33.500Z,15.48
2023-03-26T10:57:05.078Z,15.39
2023-03-26T10:59:33.487Z,15.32
2023-03-26T11:02:29.461Z,15.29
2023-03-26T11:05:19.063Z,15.13
2023-03-26T11:07:54.084Z,15.01
2023-03-26T11:10:42.420Z,14.93
2023-03-26T11:13:22.967Z,14.84
2023-03-26T11:15:58.072Z,14.73
2023-03-26T11:18:35.822Z,14.63
2023-03-26T11:21:19.794Z,14.59
2023-03-26T11:24:06.342Z,14.53
2023-03-26T11:26:43.804Z,14.45
2023-03-26T11:29:31.378Z,14.45
2023-03-26T11:32:06.773Z,14.49
2023-03-26T11:34:39.988Z,14.47
2023-03-26T11:37:16.594Z,14.40
2023-03-26T11:39:52.787Z,14.60
2023-03-26T11:42:25.058Z,14.53
2023-03-26T11:44:57.463Z,14.63
2023-03-26T11:47:32.383Z,14.01
2023-03-26T11:50:04.950Z,14.80
2023-03-26T11:52:33.446Z,14.87
2023-03-26T11:55:03.499Z,15.09
2023-03-26T11:57:35.872Z,15.18
2023-03-26T12:00:16.794Z,15.72
2023-03-26T12:02:46.807Z,15.86
2023-03-26T12:05:21.205Z,15.96
2023-03-26T12:07:56.113Z,15.98
2023-03-26T12:10:32.260Z,15.95
2023-03-26T12:13:03.081Z,15.92
2023-03-26T12:15:32.554Z,15.88
2023-03-26T12:18:24.895Z,15.89
2023-03-26T12:21:05.512Z,16.01
2023-03-26T12:23:44.350Z,16.06
2023-03-26T12:26:17.667Z,16.09
2023-03-26T12:28:50.106Z,16.02
2023-03-26T12:31:20.541Z,15.98
2023-03-26T12:34:07.809Z,16.02
2023-03-26T12:36:39.278Z,16.14
2023-03-26T12:40:07.551Z,16.32
2023-03-26T12:44:51.502Z,16.60
2023-03-26T12:45:23.949Z,16.87
2023-03-26T12:48:00.766Z,17.09
2023-03-26T12:50:45.892Z,17.19
2023-03-26T12:53:32.351Z,17.30
2023-03-26T12:56:07.662Z,17.42
2023-03-26T12:58:56.863Z,17.53
2023-03-26T13:01:33.398Z,17.58
2023-03-26T13:04:51.929Z,17.64
2023-03-26T13:07:41.749Z,17.62
2023-03-26T13:10:30.590Z,17.42
2023-03-26T13:13:17.148Z,17.01
2023-03-26T13:15:52.694Z,16.66
2023-03-26T13:18:35.894Z,16.66
2023-03-26T13:21:12.285Z,16.78
2023-03-26T13:23:51.836Z,16.87
2023-03-26T13:26:33.653Z,16.97
2023-03-26T13:29:09.834Z,17.11
2023-03-26T13:31:50.952Z,17.29
2023-03-26T13:34:31.416Z,17.42
2023-03-26T13:37:12.902Z,17.43
2023-03-26T13:39:54.932Z,17.69
2023-03-26T13:42:40.631Z,17.77
2023-03-26T13:45:24.063Z,17.81
2023-03-26T13:47:58.507Z,17.89
2023-03-26T13:50:29.747Z,17.94
2023-03-26T13:53:03.778Z,17.90
2023-03-26T13:55:36.289Z,17.74
2023-03-26T13:58:12.669Z,17.59
2023-03-26T14:00:54.859Z,17.33
2023-03-26T14:03:35.761Z,17.17
2023-03-26T14:06:09.767Z,17.38
2023-03-26T14:08:43.952Z,17.53
2023-03-26T14:11:17.771Z,17.55
2023-03-26T14:13:54.109Z,17.50
2023-03-26T14:16:27.769Z,16.73
2023-03-26T14:19:07.715Z,17.34
2023-03-26T14:22:00.131Z,17.39
2023-03-26T14:25:08.545Z,17.40
2023-03-26T14:27:52.113Z,17.40
2023-03-26T14:30:57.356Z,17.36
2023-03-26T14:33:48.024Z,17.31
2023-03-26T14:36:30.696Z,17.30
2023-03-26T14:39:15.498Z,17.23
2023-03-26T14:41:50.091Z,17.25
2023-03-26T14:44:52.312Z,17.33
2023-03-26T14:47:22.467Z,17.28
2023-03-26T14:50:27.207Z,17.27
2023-03-26T14:53:01.235Z,17.30
2023-03-26T14:56:05.370Z,17.37
2023-03-26T14:59:09.884Z,17.46
2023-03-26T15:02:18.928Z,17.51
2023-03-26T15:05:23.827Z,17.50
2023-03-26T15:08:34.072Z,17.44
2023-03-26T15:11:22.653Z,17.38
2023-03-26T15:14:31.711Z,17.26
2023-03-26T15:17:34.726Z,17.13
2023-03-26T15:20:38.764Z,17.11
2023-03-26T15:23:38.876Z,16.96
2023-03-26T15:26:54.122Z,16.87
2023-03-26T15:29:43.688Z,16.81
2023-03-26T15:32:52.835Z,16.78
2023-03-26T15:35:44.672Z,16.74
2023-03-26T15:38:47.148Z,16.64
2023-03-26T15:41:18.744Z,16.45
2023-03-26T15:44:23.438Z,16.33
2023-03-26T15:47:18.775Z,16.22
2023-03-26T15:49:56.167Z,16.20
2023-03-26T15:52:30.621Z,16.18
2023-03-26T15:55:07.091Z,16.16
2023-03-26T15:57:44.148Z,16.18
2023-03-26T16:00:23.784Z,16.11
2023-03-26T16:03:09.161Z,16.09
2023-03-26T16:06:00.103Z,15.91
2023-03-26T16:08:38.672Z,15.81
2023-03-26T16:11:12.852Z,15.70
2023-03-26T16:13:43.741Z,15.82
2023-03-26T16:16:21.053Z,15.78
2023-03-26T16:18:55.352Z,15.63
2023-03-26T16:21:56.226Z,15.66
2023-03-26T16:24:32.069Z,15.65
2023-03-26T16:27:30.447Z,15.45
2023-03-26T16:30:20.206Z,15.45
2023-03-26T16:32:55.448Z,15.36
2023-03-26T16:35:47.895Z,15.29
2023-03-26T16:38:18.613Z,15.15
2023-03-26T16:41:00.483Z,15.20
2023-03-26T16:43:46.884Z,15.13
2023-03-26T16:46:29.832Z,15.13
2023-03-26T16:49:04.504Z,15.17
2023-03-26T16:51:54.845Z,15.14
2023-03-26T16:54:29.411Z,15.08
2023-03-26T16:57:02.587Z,15.08
2023-03-26T17:00:05.495Z,14.98
2023-03-26T17:02:53.516Z,14.88
2023-03-26T17:05:35.178Z,14.80
2023-03-26T17:08:13.407Z,14.73
2023-03-26T17:10:48.520Z,14.60
2023-03-26T17:13:24.412Z,14.48
2023-03-26T17:16:02.781Z,14.43
2023-03-26T17:18:46.287Z,14.40
2023-03-26T17:21:18.408Z,14.36
2023-03-26T17:24:05.065Z,14.34
2023-03-26T17:26:45.560Z,14.29
2023-03-26T17:29:27.472Z,14.18
2023-03-26T17:32:03.546Z,14.14
2023-03-26T17:35:02.362Z,14.08
2023-03-26T17:37:41.111Z,14.07
2023-03-26T17:40:45.662Z,14.02
2023-03-26T17:43:33.963Z,13.98
2023-03-26T17:46:04.166Z,13.95
2023-03-26T17:48:37.858Z,13.94
2023-03-26T17:51:28.313Z,13.94
2023-03-26T17:53:57.656Z,13.87
2023-03-26T17:56:32.357Z,13.83
2023-03-26T17:59:12.158Z,13.73
2023-03-26T18:01:44.351Z,13.64
2023-03-26T18:04:19.884Z,13.62
2023-03-26T18:07:15.517Z,13.57
2023-03-26T18:10:00.458Z,13.53
2023-03-26T18:12:45.693Z,13.53
2023-03-26T18:15:42.718Z,13.48
2023-03-26T18:18:18.474Z,13.40
2023-03-26T18:20:49.269Z,13.39
2023-03-26T18:23:26.771Z,13.44
2023-03-26T18:25:58.804Z,13.41
2023-03-26T18:28:32.939Z,13.45
2023-03-26T18:31:10.605Z,13.44
2023-03-26T18:33:47.420Z,13.37
2023-03-26T18:36:18.702Z,13.29
2023-03-26T18:38:49.064Z,13.24
2023-03-26T18:41:25.316Z,13.21
2023-03-26T18:43:53.816Z,13.20
2023-03-26T18:46:24.930Z,13.15
2023-03-26T18:48:55.311Z,13.13
2023-03-26T18:51:23.922Z,13.10
2023-03-26T18:53:57.083Z,13.11
2023-03-26T18:56:31.794Z,13.14
2023-03-26T18:59:02.558Z,12.24
2023-03-26T19:01:33.404Z,13.08
2023-03-26T19:04:05.434Z,13.06
2023-03-26T19:06:38.486Z,13.10
2023-03-26T19:09:27.959Z,12.96
2023-03-26T19:12:06.090Z,13.06
2023-03-26T19:14:37.160Z,13.08
2023-03-26T19:17:08.299Z,13.12
2023-03-26T19:19:39.019Z,13.13
2023-03-26T19:22:08.724Z,13.02
2023-03-26T19:24:38.905Z,13.07
2023-03-26T19:27:07.523Z,13.04
2023-03-26T19:29:36.793Z,13.04
2023-03-26T19:32:06.880Z,12.96
2023-03-26T19:34:39.458Z,12.92
2023-03-26T19:37:19.278Z,12.75
2023-03-26T19:39:51.300Z,12.61
2023-03-26T19:42:23.406Z,12.45
2023-03-26T19:44:53.814Z,12.30
2023-03-26T19:47:35.408Z,12.16
2023-03-26T19:50:25.570Z,12.04
2023-03-26T19:53:16.801Z,11.88
2023-03-26T19:55:57.422Z,11.63
2023-03-26T19:58:27.495Z,11.62
2023-03-26T20:00:57.184Z,11.49
2023-03-26T20:03:31.801Z,11.35
2023-03-26T20:06:00.344Z,11.28
2023-03-26T20:08:31.000Z,10.75
2023-03-26T20:11:00.830Z,11.08
2023-03-26T20:13:31.523Z,10.98
2023-03-26T20:16:06.555Z,10.76
2023-03-26T20:18:35.585Z,10.93
2023-03-26T20:21:10.200Z,10.90
2023-03-26T20:23:39.212Z,10.77
2023-03-26T20:26:12.974Z,10.94
2023-03-26T20:28:47.856Z,10.91
2023-03-26T20:31:19.376Z,10.93
2023-03-26T20:33:50.930Z,10.96
2023-03-26T20:36:33.819Z,11.03
2023-03-26T20:39:05.824Z,11.07
2023-03-26T20:41:38.229Z,11.11
2023-03-26T20:44:13.881Z,11.17
2023-03-26T20:46:43.851Z,11.21
2023-03-26T20:49:13.051Z,11.20
2023-03-26T20:51:42.274Z,11.25
2023-03-26T20:54:16.147Z,11.26
2023-03-26T20:56:47.957Z,11.01
2023-03-26T20:59:22.277Z,11.34
2023-03-26T21:01:51.988Z,11.31
2023-03-26T21:04:21.560Z,11.31
2023-03-26T21:06:50.137Z,11.31
2023-03-26T21:09:23.957Z,11.30
2023-03-26T21:12:01.929Z,11.20
2023-03-26T21:14:34.578Z,11.18
2023-03-26T21:17:04.792Z,11.20
2023-03-26T21:19:34.043Z,11.25
2023-03-26T21:22:13.804Z,11.32
2023-03-26T21:25:00.235Z,11.35
2023-03-26T21:27:36.462Z,11.34
2023-03-26T21:30:13.934Z,11.40
2023-03-26T21:32:44.209Z,11.38
2023-03-26T21:35:15.167Z,11.34
2023-03-26T21:37:45.735Z,11.05
2023-03-26T21:40:17.142Z,11.04
2023-03-26T21:42:49.679Z,11.23
2023-03-26T21:45:19.837Z,11.04
2023-03-26T21:47:49.456Z,11.24
2023-03-26T21:50:20.763Z,10.82
2023-03-26T21:52:50.491Z,11.17
2023-03-26T21:55:20.550Z,11.10
2023-03-26T21:58:14.648Z,11.08
2023-03-26T22:00:51.864Z,11.03
2023-03-26T22:03:26.608Z,10.98
2023-03-26T22:06:01.307Z,10.72
2023-03-26T22:08:32.878Z,10.79
2023-03-26T22:11:01.607Z,10.71
2023-03-26T22:13:31.992Z,10.71
2023-03-26T22:16:01.015Z,10.69
2023-03-26T22:18:30.783Z,10.66
2023-03-26T22:21:00.099Z,10.60
2023-03-26T22:23:36.454Z,10.57
2023-03-26T22:26:05.364Z,10.56
2023-03-26T22:28:35.644Z,10.54
2023-03-26T22:31:08.689Z,10.45
2023-03-26T22:33:37.409Z,10.51
2023-03-26T22:36:06.477Z,10.49
2023-03-26T22:38:53.912Z,10.44
2023-03-26T22:41:22.665Z,10.50
2023-03-26T22:43:54.869Z,10.58
2023-03-26T22:46:24.385Z,10.58
2023-03-26T22:48:52.852Z,10.61
2023-03-26T22:51:21.441Z,10.63
2023-03-26T22:53:49.832Z,10.63
2023-03-26T22:56:18.920Z,10.63
2023-03-26T22:58:48.195Z,10.61
2023-03-26T23:01:20.455Z,10.61
2023-03-26T23:03:48.906Z,10.60
2023-03-26T23:06:17.988Z,10.54
2023-03-26T23:08:46.454Z,10.56
2023-03-26T23:11:17.684Z,10.32
2023-03-26T23:13:47.971Z,10.59
2023-03-26T23:16:19.300Z,10.66
2023-03-26T23:18:47.890Z,10.63
2023-03-26T23:21:18.571Z,10.60
2023-03-26T23:23:47.751Z,10.51
2023-03-26T23:26:16.808Z,10.56
2023-03-26T23:28:45.281Z,10.48
2023-03-26T23:31:14.245Z,10.51
2023-03-26T23:33:46.686Z,10.51
2023-03-26T23:36:18.353Z,10.53
2023-03-26T23:38:49.402Z,10.18
2023-03-26T23:41:19.775Z,10.28
2023-03-26T23:43:53.737Z,10.53
2023-03-26T23:46:25.253Z,10.53
2023-03-26T23:48:55.204Z,10.48
2023-03-26T23:51:24.199Z,10.44
2023-03-26T23:53:53.905Z,10.41
2023-03-26T23:56:22.374Z,10.38
2023-03-26T23:58:50.962Z,10.36
